Time;durP1;ratioP1;P1;durP2;ratioP2;P2;SDS_P1;SDS_P2;PMS_P1;PMS_P2;Temp;Humidity;BMP_temperature;BMP_pressure;BME280_temperature;BME280_humidity;BME280_pressure;Samples;Min_cycle;Max_cycle;Signal;HPM_P1;HPM_P2
2023/05/25 00:01:33;;;;;;;12.07;4.47;;;;;;;;;;5053994;28;20029;-74
2023/05/25 00:04:01;;;;;;;7.60;4.30;;;;;;;;;;5054022;28;20020;-75
2023/05/25 00:06:28;;;;;;;10.40;4.78;;;;;;;;;;5054202;28;20049;-74
2023/05/25 00:08:56;;;;;;;6.35;4.50;;;;;;;;;;5052936;28;20021;-74
2023/05/25 00:11:22;;;;;;;7.53;4.38;;;;;;;;;;5054234;28;20100;-76
2023/05/25 00:13:49;;;;;;;6.05;4.25;;;;;;;;;;5054041;28;20075;-76
2023/05/25 00:16:15;;;;;;;5.32;4.72;;;;;;;;;;5053966;28;20029;-77
2023/05/25 00:18:42;;;;;;;6.68;4.97;;;;;;;;;;5053916;28;20092;-76
2023/05/25 00:21:08;;;;;;;6.68;4.10;;;;;;;;;;5053538;28;20037;-76
2023/05/25 00:23:34;;;;;;;5.50;4.18;;;;;;;;;;5053707;28;20100;-76
2023/05/25 00:26:02;;;;;;;4.88;4.25;;;;;;;;;;5053913;28;20052;-76
2023/05/25 00:28:28;;;;;;;6.15;4.25;;;;;;;;;;5053945;28;20071;-76
2023/05/25 00:30:54;;;;;;;7.75;4.70;;;;;;;;;;5053735;28;20443;-77
2023/05/25 00:33:21;;;;;;;5.00;4.53;;;;;;;;;;5053617;28;20540;-77
2023/05/25 00:35:47;;;;;;;6.38;4.05;;;;;;;;;;5053804;28;20487;-77
2023/05/25 00:38:14;;;;;;;6.53;4.50;;;;;;;;;;5053336;28;20021;-76
2023/05/25 00:40:40;;;;;;;4.70;4.18;;;;;;;;;;5053434;28;20021;-76
2023/05/25 00:43:08;;;;;;;5.20;4.70;;;;;;;;;;5053609;28;20033;-76
2023/05/25 00:45:34;;;;;;;8.43;4.78;;;;;;;;;;5057711;28;20029;-76
2023/05/25 00:48:00;;;;;;;6.40;5.00;;;;;;;;;;5073435;28;20110;-76
2023/05/25 00:50:36;;;;;;;5.78;4.25;;;;;;;;;;5073298;28;20032;-76
2023/05/25 00:53:02;;;;;;;8.50;4.65;;;;;;;;;;5073217;28;20035;-77
2023/05/25 00:55:29;;;;;;;7.63;4.63;;;;;;;;;;5055201;28;20028;-76
2023/05/25 00:57:57;;;;;;;6.95;4.57;;;;;;;;;;5053510;28;20035;-77
2023/05/25 01:00:23;;;;;;;6.20;3.75;;;;;;;;;;5070348;28;20103;-77
2023/05/25 01:02:51;;;;;;;7.35;4.10;;;;;;;;;;5052406;28;20033;-74
2023/05/25 01:05:20;;;;;;;5.95;3.92;;;;;;;;;;5072087;28;20032;-76
2023/05/25 01:07:46;;;;;;;5.10;4.10;;;;;;;;;;5054763;28;20028;-75
2023/05/25 01:10:14;;;;;;;5.13;4.28;;;;;;;;;;5072431;28;20025;-77
2023/05/25 01:12:42;;;;;;;7.40;3.90;;;;;;;;;;5072485;28;20388;-76
2023/05/25 01:15:08;;;;;;;7.25;4.45;;;;;;;;;;5072697;28;20028;-76
2023/05/25 01:17:37;;;;;;;4.97;4.13;;;;;;;;;;5072924;28;20473;-76
2023/05/25 01:20:06;;;;;;;5.18;4.28;;;;;;;;;;5072449;28;20024;-76
2023/05/25 01:22:39;;;;;;;4.63;4.20;;;;;;;;;;5054811;28;20037;-76
2023/05/25 01:25:16;;;;;;;6.15;3.90;;;;;;;;;;5072690;28;20461;-76
2023/05/25 01:27:57;;;;;;;4.72;3.80;;;;;;;;;;5072657;28;20502;-76
2023/05/25 01:30:25;;;;;;;5.75;4.35;;;;;;;;;;5072424;28;20028;-76
2023/05/25 01:32:52;;;;;;;7.15;4.00;;;;;;;;;;5053901;28;20054;-76
2023/05/25 01:35:20;;;;;;;6.63;4.30;;;;;;;;;;5072460;28;20036;-76
2023/05/25 01:37:46;;;;;;;6.40;4.32;;;;;;;;;;5054681;28;20025;-76
2023/05/25 01:40:13;;;;;;;5.85;4.00;;;;;;;;;;5072657;28;20048;-76
2023/05/25 01:42:39;;;;;;;5.43;3.97;;;;;;;;;;5072352;28;20036;-76
2023/05/25 01:45:06;;;;;;;5.22;3.72;;;;;;;;;;5054319;28;20461;-76
2023/05/25 01:47:38;;;;;;;5.97;4.82;;;;;;;;;;5072819;28;20090;-76
2023/05/25 01:50:04;;;;;;;;;;;;;;;;;;5073129;28;20495;-76
2023/05/25 01:52:32;;;;;;;18.75;4.93;;;;;;;;;;5054482;28;19954;-76
2023/05/25 01:55:05;;;;;;;3.90;3.60;;;;;;;;;;5072519;28;20505;-77
2023/05/25 01:57:33;;;;;;;8.23;4.45;;;;;;;;;;5072551;28;20476;-76
2023/05/25 02:00:01;;;;;;;5.70;4.28;;;;;;;;;;5072570;28;20020;-76
2023/05/25 02:02:28;;;;;;;4.32;3.70;;;;;;;;;;5072325;28;20033;-76
2023/05/25 02:04:54;;;;;;;5.47;4.25;;;;;;;;;;5072634;28;20031;-76
2023/05/25 02:07:21;;;;;;;5.93;4.32;;;;;;;;;;5072561;28;20028;-76
2023/05/25 02:09:47;;;;;;;6.65;3.80;;;;;;;;;;5072559;28;20469;-76
2023/05/25 02:12:13;;;;;;;7.15;4.00;;;;;;;;;;5072057;28;20083;-78
2023/05/25 02:14:39;;;;;;;6.82;4.28;;;;;;;;;;5072695;28;20025;-76
2023/05/25 02:17:06;;;;;;;6.65;4.25;;;;;;;;;;5071831;28;20468;-76
2023/05/25 02:19:32;;;;;;;5.40;3.80;;;;;;;;;;5053677;28;20029;-76
2023/05/25 02:21:58;;;;;;;6.18;4.03;;;;;;;;;;5071897;28;20119;-76
2023/05/25 02:24:24;;;;;;;6.15;3.58;;;;;;;;;;5072390;28;20551;-76
2023/05/25 02:26:51;;;;;;;7.22;3.70;;;;;;;;;;5072311;28;20035;-76
2023/05/25 02:29:17;;;;;;;7.25;4.25;;;;;;;;;;5072397;28;20024;-76
2023/05/25 02:31:43;;;;;;;7.05;3.75;;;;;;;;;;5054296;28;20024;-76
2023/05/25 02:34:10;;;;;;;5.00;3.83;;;;;;;;;;5053825;28;20468;-76
2023/05/25 02:36:38;;;;;;;10.07;3.90;;;;;;;;;;5072128;28;20024;-76
2023/05/25 02:39:04;;;;;;;5.72;3.58;;;;;;;;;;5054263;28;20029;-76
2023/05/25 02:41:30;;;;;;;4.82;3.60;;;;;;;;;;5072222;28;20035;-76
2023/05/25 02:43:58;;;;;;;6.32;4.03;;;;;;;;;;5056645;28;20495;-77
2023/05/25 02:46:24;;;;;;;5.10;3.80;;;;;;;;;;5075431;28;20137;-76
2023/05/25 02:48:50;;;;;;;4.07;3.45;;;;;;;;;;5075439;28;20052;-76
2023/05/25 02:51:16;;;;;;;4.97;3.83;;;;;;;;;;5075643;28;20021;-75
2023/05/25 02:53:42;;;;;;;4.00;3.60;;;;;;;;;;5075689;28;20078;-76
2023/05/25 02:56:09;;;;;;;4.20;3.35;;;;;;;;;;5075560;28;20020;-76
2023/05/25 02:58:36;;;;;;;4.80;3.55;;;;;;;;;;5075553;28;20025;-76
2023/05/25 03:01:04;;;;;;;4.68;3.40;;;;;;;;;;5075353;28;20027;-76
2023/05/25 03:03:30;;;;;;;5.07;3.60;;;;;;;;;;5057506;28;20039;-76
2023/05/25 03:05:56;;;;;;;8.35;3.30;;;;;;;;;;5075475;28;20074;-76
2023/05/25 03:08:22;;;;;;;4.80;3.40;;;;;;;;;;5075001;28;20430;-76
2023/05/25 03:10:48;;;;;;;5.75;3.00;;;;;;;;;;5075028;28;20021;-76
2023/05/25 03:13:15;;;;;;;7.43;3.50;;;;;;;;;;5057205;28;20465;-76
2023/05/25 03:15:41;;;;;;;4.40;3.72;;;;;;;;;;5075134;28;20016;-76
2023/05/25 03:18:07;;;;;;;5.97;3.50;;;;;;;;;;5075181;28;20491;-75
2023/05/25 03:20:33;;;;;;;7.03;3.25;;;;;;;;;;5075033;28;20021;-76
2023/05/25 03:22:59;;;;;;;6.50;3.50;;;;;;;;;;5075072;28;20025;-76
2023/05/25 03:25:25;;;;;;;5.78;3.30;;;;;;;;;;5074876;28;20086;-75
2023/05/25 03:27:52;;;;;;;8.00;3.75;;;;;;;;;;5074996;28;20090;-75
2023/05/25 03:30:19;;;;;;;5.57;3.42;;;;;;;;;;5074841;28;20021;-76
2023/05/25 03:32:45;;;;;;;5.00;3.40;;;;;;;;;;5075002;28;20029;-76
2023/05/25 03:35:11;;;;;;;5.55;3.22;;;;;;;;;;5074817;28;20031;-75
2023/05/25 03:37:37;;;;;;;7.20;3.38;;;;;;;;;;5074723;28;20056;-76
2023/05/25 03:40:03;;;;;;;6.97;3.00;;;;;;;;;;5074770;28;20031;-77
2023/05/25 03:42:29;;;;;;;9.60;3.60;;;;;;;;;;5074675;28;20499;-76
2023/05/25 03:44:55;;;;;;;6.03;2.90;;;;;;;;;;5074546;28;20081;-76
2023/05/25 03:47:22;;;;;;;4.55;3.17;;;;;;;;;;5074602;28;20095;-75
2023/05/25 03:49:48;;;;;;;3.50;3.20;;;;;;;;;;5074650;28;20082;-76
2023/05/25 03:52:14;;;;;;;3.83;2.90;;;;;;;;;;5074456;28;20050;-75
2023/05/25 03:54:40;;;;;;;4.05;2.92;;;;;;;;;;5073748;28;20031;-76
2023/05/25 03:57:06;;;;;;;3.13;2.63;;;;;;;;;;5056349;28;20035;-76
2023/05/25 03:59:32;;;;;;;10.80;3.42;;;;;;;;;;5074223;28;20495;-76
2023/05/25 04:01:58;;;;;;;4.10;2.85;;;;;;;;;;5074313;28;20028;-76
2023/05/25 04:04:24;;;;;;;6.30;3.08;;;;;;;;;;5074093;28;20020;-76
2023/05/25 04:06:50;;;;;;;5.00;3.03;;;;;;;;;;5074230;28;20025;-77
2023/05/25 04:09:17;;;;;;;8.60;3.15;;;;;;;;;;5074135;28;20017;-76
2023/05/25 04:11:44;;;;;;;10.40;3.30;;;;;;;;;;5074060;28;20041;-77
2023/05/25 04:14:10;;;;;;;3.90;2.90;;;;;;;;;;5074119;28;20083;-75
2023/05/25 04:16:36;;;;;;;5.80;2.97;;;;;;;;;;5074093;28;20082;-76
2023/05/25 04:19:02;;;;;;;3.30;2.80;;;;;;;;;;5073908;28;20025;-76
2023/05/25 04:21:28;;;;;;;3.90;2.85;;;;;;;;;;5073907;28;20040;-75
2023/05/25 04:23:55;;;;;;;5.40;2.92;;;;;;;;;;5073742;28;20078;-76
2023/05/25 04:26:21;;;;;;;3.17;2.85;;;;;;;;;;5073786;28;20028;-76
2023/05/25 04:28:47;;;;;;;7.68;2.85;;;;;;;;;;5073490;28;20039;-76
2023/05/25 04:31:13;;;;;;;3.40;2.70;;;;;;;;;;5055832;28;20028;-77
2023/05/25 04:33:39;;;;;;;4.45;2.70;;;;;;;;;;5073544;28;20036;-76
2023/05/25 04:36:06;;;;;;;6.82;3.20;;;;;;;;;;5073737;28;20031;-77
2023/05/25 04:38:32;;;;;;;9.10;3.15;;;;;;;;;;5073900;28;20021;-76
2023/05/25 04:41:00;;;;;;;7.35;3.22;;;;;;;;;;5055465;28;20045;-77
2023/05/25 04:43:28;;;;;;;6.63;2.80;;;;;;;;;;5073588;28;20028;-76
2023/05/25 04:45:54;;;;;;;6.72;2.90;;;;;;;;;;5073220;28;20040;-76
2023/05/25 04:48:20;;;;;;;5.15;2.65;;;;;;;;;;5073425;28;20029;-77
2023/05/25 04:50:46;;;;;;;7.15;3.10;;;;;;;;;;5055530;28;20017;-76
2023/05/25 04:53:13;;;;;;;5.82;2.72;;;;;;;;;;5073371;28;20473;-76
2023/05/25 04:55:39;;;;;;;5.82;2.70;;;;;;;;;;5073398;28;20096;-76
2023/05/25 04:58:05;;;;;;;4.90;3.00;;;;;;;;;;5072979;28;20054;-76
2023/05/25 05:00:33;;;;;;;6.07;2.97;;;;;;;;;;5072921;28;20103;-76
2023/05/25 05:02:59;;;;;;;6.60;2.70;;;;;;;;;;5073030;28;20028;-75
2023/05/25 05:05:26;;;;;;;3.35;2.83;;;;;;;;;;5073114;28;20020;-76
2023/05/25 05:07:52;;;;;;;5.40;2.53;;;;;;;;;;5072805;28;20025;-76
2023/05/25 05:10:18;;;;;;;5.35;2.63;;;;;;;;;;5073047;28;21032;-77
2023/05/25 05:12:45;;;;;;;7.57;2.97;;;;;;;;;;5072498;28;20021;-76
2023/05/25 05:15:11;;;;;;;4.55;2.40;;;;;;;;;;5072528;28;20063;-77
2023/05/25 05:17:37;;;;;;;7.53;2.50;;;;;;;;;;5072656;28;20024;-79
2023/05/25 05:20:04;;;;;;;5.15;2.75;;;;;;;;;;5072913;28;20052;-75
2023/05/25 05:22:30;;;;;;;6.65;2.60;;;;;;;;;;5054702;28;20032;-76
2023/05/25 05:24:56;;;;;;;5.43;2.58;;;;;;;;;;5072672;28;20164;-75
2023/05/25 05:27:22;;;;;;;4.10;2.88;;;;;;;;;;5072350;28;20021;-78
2023/05/25 05:29:48;;;;;;;6.43;2.90;;;;;;;;;;5072586;28;20031;-76
2023/05/25 05:32:14;;;;;;;5.15;2.72;;;;;;;;;;5072269;28;20103;-77
2023/05/25 05:34:40;;;;;;;2.70;2.45;;;;;;;;;;5072472;28;20044;-76
2023/05/25 05:37:06;;;;;;;4.22;2.83;;;;;;;;;;5072194;28;20477;-76
2023/05/25 05:39:32;;;;;;;6.22;2.97;;;;;;;;;;5072272;28;20016;-76
2023/05/25 05:41:58;;;;;;;7.07;2.97;;;;;;;;;;5072447;28;20469;-77
2023/05/25 05:44:25;;;;;;;5.47;2.75;;;;;;;;;;5072497;28;20074;-77
2023/05/25 05:46:51;;;;;;;5.03;2.72;;;;;;;;;;5072546;28;20063;-76
2023/05/25 05:49:17;;;;;;;4.03;2.47;;;;;;;;;;5072710;28;20340;-76
2023/05/25 05:51:43;;;;;;;5.07;2.63;;;;;;;;;;5072570;28;20033;-76
2023/05/25 05:54:09;;;;;;;6.65;2.50;;;;;;;;;;5072582;28;20024;-76
2023/05/25 05:56:35;;;;;;;5.28;3.00;;;;;;;;;;5054718;28;20481;-77
2023/05/25 05:59:01;;;;;;;9.85;2.95;;;;;;;;;;5071115;28;20017;-77
2023/05/25 06:01:27;;;;;;;6.05;2.80;;;;;;;;;;5051652;28;20086;-78
2023/05/25 06:03:54;;;;;;;4.80;2.40;;;;;;;;;;5070111;28;20023;-79
2023/05/25 06:06:20;;;;;;;4.50;2.60;;;;;;;;;;5072324;28;20462;-79
2023/05/25 06:08:47;;;;;;;5.28;2.63;;;;;;;;;;5072462;28;20024;-78
2023/05/25 06:11:13;;;;;;;4.53;2.80;;;;;;;;;;5072244;28;20452;-78
2023/05/25 06:13:39;;;;;;;4.43;2.45;;;;;;;;;;5071015;28;20357;-78
2023/05/25 06:16:05;;;;;;;6.75;2.40;;;;;;;;;;5071918;28;20021;-78
2023/05/25 06:18:32;;;;;;;3.75;2.40;;;;;;;;;;5074136;28;20499;-76
2023/05/25 06:20:58;;;;;;;5.03;2.50;;;;;;;;;;5057416;28;20029;-81
2023/05/25 06:23:24;;;;;;;4.07;2.63;;;;;;;;;;5075763;28;20064;-78
2023/05/25 06:25:52;;;;;;;4.80;2.97;;;;;;;;;;5075988;28;20461;-80
2023/05/25 06:28:18;;;;;;;4.53;2.60;;;;;;;;;;5075802;28;20021;-78
2023/05/25 06:30:44;;;;;;;7.20;2.80;;;;;;;;;;5075658;28;20040;-84
2023/05/25 06:33:10;;;;;;;4.43;2.40;;;;;;;;;;5075751;28;20027;-80
2023/05/25 06:35:36;;;;;;;4.20;2.38;;;;;;;;;;5075527;28;20032;-80
2023/05/25 06:38:03;;;;;;;4.90;3.25;;;;;;;;;;5075791;28;20448;-77
2023/05/25 06:40:29;;;;;;;3.17;2.35;;;;;;;;;;5075554;28;20024;-78
2023/05/25 06:42:55;;;;;;;4.45;2.60;;;;;;;;;;5075196;28;20043;-78
2023/05/25 06:45:21;;;;;;;5.28;2.38;;;;;;;;;;5074825;28;20065;-78
2023/05/25 06:47:47;;;;;;;5.90;2.53;;;;;;;;;;5075178;28;20056;-77
2023/05/25 06:50:13;;;;;;;4.88;2.70;;;;;;;;;;5075233;28;20149;-78
2023/05/25 06:52:40;;;;;;;12.40;2.95;;;;;;;;;;5075216;28;20024;-85
2023/05/25 06:55:07;;;;;;;4.60;2.75;;;;;;;;;;5075449;28;20051;-87
2023/05/25 06:57:33;;;;;;;7.32;2.78;;;;;;;;;;5057412;28;20020;-80
2023/05/25 06:59:59;;;;;;;5.50;2.60;;;;;;;;;;5075340;28;20532;-81
2023/05/25 07:02:25;;;;;;;6.82;2.80;;;;;;;;;;5075048;28;20032;-79
2023/05/25 07:04:51;;;;;;;6.75;2.75;;;;;;;;;;5074597;28;20074;-77
2023/05/25 07:07:17;;;;;;;3.70;2.55;;;;;;;;;;5074992;28;20070;-80
2023/05/25 07:09:44;;;;;;;7.35;2.50;;;;;;;;;;5075135;28;20475;-78
2023/05/25 07:12:10;;;;;;;6.20;2.70;;;;;;;;;;5075262;28;20023;-78
2023/05/25 07:14:37;;;;;;;7.00;2.42;;;;;;;;;;5075044;28;20082;-77
2023/05/25 07:17:03;;;;;;;6.35;2.50;;;;;;;;;;5074731;28;20048;-77
2023/05/25 07:19:29;;;;;;;4.20;2.30;;;;;;;;;;5074473;28;20025;-77
2023/05/25 07:21:55;;;;;;;6.70;2.50;;;;;;;;;;5074623;28;20044;-77
2023/05/25 07:24:21;;;;;;;6.50;3.10;;;;;;;;;;5074422;28;20104;-78
2023/05/25 07:26:48;;;;;;;3.58;2.58;;;;;;;;;;5074751;28;20069;-77
2023/05/25 07:29:14;;;;;;;8.60;2.85;;;;;;;;;;5073507;28;20376;-85
2023/05/25 07:31:40;;;;;;;4.93;2.60;;;;;;;;;;5074766;28;20060;-84
2023/05/25 07:34:06;;;;;;;5.60;2.40;;;;;;;;;;5074907;28;20536;-85
2023/05/25 07:36:32;;;;;;;5.25;2.78;;;;;;;;;;5057060;28;20104;-84
2023/05/25 07:38:58;;;;;;;5.13;2.60;;;;;;;;;;5074580;28;20062;-85
2023/05/25 07:41:25;;;;;;;3.33;2.35;;;;;;;;;;5073557;28;20083;-84
2023/05/25 07:43:51;;;;;;;7.28;2.80;;;;;;;;;;5072969;28;20107;-83
2023/05/25 07:46:19;;;;;;;3.58;2.63;;;;;;;;;;5067977;22;20057;-82
2023/05/25 07:48:45;;;;;;;3.92;2.20;;;;;;;;;;5034140;28;20116;-83
2023/05/25 07:51:12;;;;;;;4.85;2.60;;;;;;;;;;5034287;28;20025;-82
2023/05/25 07:53:38;;;;;;;4.35;2.30;;;;;;;;;;5032988;28;20100;-85
2023/05/25 07:56:04;;;;;;;9.85;3.00;;;;;;;;;;5033473;28;20027;-78
2023/05/25 07:58:30;;;;;;;3.38;2.28;;;;;;;;;;5030509;28;20029;-84
2023/05/25 08:00:57;;;;;;;7.28;2.63;;;;;;;;;;5030159;28;20034;-83
2023/05/25 08:03:23;;;;;;;7.53;2.70;;;;;;;;;;5035833;28;20541;-85
2023/05/25 08:05:49;;;;;;;9.82;3.58;;;;;;;;;;5044153;28;20476;-85
2023/05/25 08:08:16;;;;;;;4.80;2.40;;;;;;;;;;5041345;28;20104;-85
2023/05/25 08:10:42;;;;;;;8.23;2.85;;;;;;;;;;5037224;28;20037;-85
2023/05/25 08:13:08;;;;;;;3.83;2.60;;;;;;;;;;5034153;28;20401;-82
2023/05/25 08:15:34;;;;;;;5.72;2.55;;;;;;;;;;5032100;28;20100;-84
2023/05/25 08:18:02;;;;;;;11.93;3.65;;;;;;;;;;5014025;28;20124;-84
2023/05/25 08:20:28;;;;;;;8.10;2.70;;;;;;;;;;5032580;28;20362;-84
2023/05/25 08:22:54;;;;;;;3.22;2.53;;;;;;;;;;5034229;28;20033;-84
2023/05/25 08:25:21;;;;;;;5.20;2.20;;;;;;;;;;5033998;28;20108;-82
2023/05/25 08:27:47;;;;;;;4.50;2.60;;;;;;;;;;5033915;28;20104;-83
2023/05/25 08:30:13;;;;;;;4.32;2.42;;;;;;;;;;5034043;28;20067;-85
2023/05/25 08:32:39;;;;;;;8.88;2.35;;;;;;;;;;5016179;28;20501;-84
2023/05/25 08:35:06;;;;;;;4.47;2.45;;;;;;;;;;5039301;28;20029;-84
2023/05/25 08:37:33;;;;;;;5.35;2.55;;;;;;;;;;5035564;28;20029;-82
2023/05/25 08:40:01;;;;;;;8.02;2.90;;;;;;;;;;5036173;28;20021;-83
2023/05/25 08:42:27;;;;;;;6.72;2.53;;;;;;;;;;5032589;28;20029;-83
2023/05/25 08:44:53;;;;;;;4.63;2.70;;;;;;;;;;5033085;28;20029;-85
2023/05/25 08:47:21;;;;;;;6.70;2.50;;;;;;;;;;5032694;28;20025;-83
2023/05/25 08:49:48;;;;;;;9.13;2.88;;;;;;;;;;5031419;28;20025;-83
2023/05/25 08:52:19;;;;;;;5.32;2.53;;;;;;;;;;5033143;28;20078;-85
2023/05/25 08:54:46;;;;;;;3.38;2.60;;;;;;;;;;5032133;28;20031;-84
2023/05/25 08:57:12;;;;;;;5.22;2.60;;;;;;;;;;5030968;28;20073;-85
2023/05/25 08:59:51;;;;;;;7.50;3.03;;;;;;;;;;5033531;28;20468;-84
2023/05/25 09:02:29;;;;;;;7.82;3.17;;;;;;;;;;5031109;28;20033;-83
2023/05/25 09:04:56;;;;;;;7.40;2.65;;;;;;;;;;5031888;28;20025;-85
2023/05/25 09:07:22;;;;;;;8.18;3.08;;;;;;;;;;5015523;28;20108;-84
2023/05/25 09:09:48;;;;;;;6.88;2.80;;;;;;;;;;5033336;28;20034;-84
2023/05/25 09:12:15;;;;;;;7.78;2.63;;;;;;;;;;5033336;28;20029;-84
2023/05/25 09:14:46;;;;;;;4.75;2.38;;;;;;;;;;5033043;28;20033;-85
2023/05/25 09:17:14;;;;;;;4.05;2.47;;;;;;;;;;5033316;28;20389;-85
2023/05/25 09:19:40;;;;;;;5.88;2.40;;;;;;;;;;5033197;28;20469;-85
2023/05/25 09:22:07;;;;;;;4.10;2.50;;;;;;;;;;5033011;28;20095;-84
2023/05/25 09:24:34;;;;;;;3.88;2.45;;;;;;;;;;5033294;28;20026;-85
2023/05/25 09:27:00;;;;;;;8.95;2.70;;;;;;;;;;5033120;28;20021;-83
2023/05/25 09:29:26;;;;;;;3.63;2.40;;;;;;;;;;5033069;28;20026;-85
2023/05/25 09:31:53;;;;;;;4.03;2.53;;;;;;;;;;5033199;28;20507;-85
2023/05/25 09:34:19;;;;;;;3.25;2.20;;;;;;;;;;5033046;28;20028;-84
2023/05/25 09:36:45;;;;;;;5.55;2.70;;;;;;;;;;5033002;28;20036;-85
2023/05/25 09:39:12;;;;;;;4.05;2.40;;;;;;;;;;5032892;28;20033;-85
2023/05/25 09:41:40;;;;;;;5.15;2.80;;;;;;;;;;5032545;28;20037;-83
2023/05/25 09:44:07;;;;;;;4.32;2.70;;;;;;;;;;5033115;28;20029;-83
2023/05/25 09:46:35;;;;;;;9.00;2.42;;;;;;;;;;5032709;28;20049;-84
2023/05/25 09:49:07;;;;;;;3.70;2.42;;;;;;;;;;5032940;28;20101;-85
2023/05/25 09:51:33;;;;;;;5.80;2.40;;;;;;;;;;5032806;28;20018;-84
2023/05/25 09:54:00;;;;;;;5.97;2.35;;;;;;;;;;5035996;28;20029;-84
2023/05/25 09:56:27;;;;;;;5.53;2.70;;;;;;;;;;5037185;28;20370;-84
2023/05/25 09:58:53;;;;;;;5.78;2.63;;;;;;;;;;5036800;28;20026;-84
2023/05/25 10:01:19;;;;;;;8.35;2.58;;;;;;;;;;5035248;28;20029;-84
2023/05/25 10:03:55;;;;;;;7.78;2.47;;;;;;;;;;5036884;28;20034;-84
2023/05/25 10:06:25;;;;;;;5.93;2.88;;;;;;;;;;5036915;28;20373;-82
2023/05/25 10:08:51;;;;;;;2.88;2.25;;;;;;;;;;5036759;28;20028;-85
2023/05/25 10:11:18;;;;;;;5.28;2.63;;;;;;;;;;5036715;28;20029;-83
2023/05/25 10:13:45;;;;;;;4.95;2.50;;;;;;;;;;5035412;28;20032;-84
2023/05/25 10:16:17;;;;;;;7.38;3.03;;;;;;;;;;5036671;28;20071;-84
2023/05/25 10:18:59;;;;;;;5.90;2.60;;;;;;;;;;5036451;28;20026;-84
2023/05/25 10:21:26;;;;;;;8.98;2.70;;;;;;;;;;5036446;28;20485;-83
2023/05/25 10:23:54;;;;;;;6.85;2.53;;;;;;;;;;5036442;28;20021;-84
2023/05/25 10:26:23;;;;;;;6.03;2.80;;;;;;;;;;5036268;28;20116;-85
2023/05/25 10:28:50;;;;;;;6.88;2.63;;;;;;;;;;5035035;28;20049;-85
2023/05/25 10:31:17;;;;;;;8.80;2.53;;;;;;;;;;5036311;28;20039;-84
2023/05/25 10:33:44;;;;;;;5.32;2.78;;;;;;;;;;5034535;28;20068;-80
2023/05/25 10:36:12;;;;;;;8.02;2.80;;;;;;;;;;5033054;28;20033;-84
2023/05/25 10:38:43;;;;;;;5.40;2.70;;;;;;;;;;5033177;28;20489;-83
2023/05/25 10:41:10;;;;;;;4.38;2.47;;;;;;;;;;5034030;28;20041;-83
2023/05/25 10:43:37;;;;;;;8.63;2.35;;;;;;;;;;5035908;28;20025;-83
2023/05/25 10:46:05;;;;;;;7.10;2.55;;;;;;;;;;5035894;28;20111;-85
2023/05/25 10:48:37;;;;;;;5.43;2.15;;;;;;;;;;5035686;28;20017;-84
2023/05/25 10:51:04;;;;;;;2.70;2.28;;;;;;;;;;5035963;28;20033;-85
2023/05/25 10:53:30;;;;;;;6.78;2.60;;;;;;;;;;5038323;28;20071;-85
2023/05/25 10:56:03;;;;;;;3.70;2.45;;;;;;;;;;5035641;28;20033;-84
2023/05/25 10:58:29;;;;;;;6.75;2.20;;;;;;;;;;5034246;28;20116;-83
2023/05/25 11:01:02;;;;;;;3.83;2.15;;;;;;;;;;5032610;28;20037;-86
2023/05/25 11:03:44;;;;;;;4.72;2.65;;;;;;;;;;5031059;28;20030;-86
2023/05/25 11:06:10;;;;;;;3.35;2.25;;;;;;;;;;5034064;28;20022;-86
2023/05/25 11:08:55;;;;;;;4.20;2.55;;;;;;;;;;5035665;28;20022;-85
2023/05/25 11:11:21;;;;;;;4.90;2.03;;;;;;;;;;5034854;28;20493;-86
2023/05/25 11:13:48;;;;;;;3.25;2.30;;;;;;;;;;5035069;28;20029;-85
2023/05/25 11:16:16;;;;;;;5.65;2.72;;;;;;;;;;5035609;28;20025;-85
2023/05/25 11:18:43;;;;;;;5.25;2.30;;;;;;;;;;5035325;28;20018;-85
2023/05/25 11:21:19;;;;;;;5.07;2.67;;;;;;;;;;5034807;28;20025;-82
2023/05/25 11:24:11;;;;;;;3.63;2.20;;;;;;;;;;5032293;28;20025;-86
2023/05/25 11:26:51;;;;;;;8.13;2.60;;;;;;;;;;5029410;28;20037;-85
2023/05/25 11:29:20;;;;;;;6.00;2.35;;;;;;;;;;5034941;28;20036;-76
2023/05/25 11:31:51;;;;;;;8.07;2.50;;;;;;;;;;5034530;28;20485;-77
2023/05/25 11:34:17;;;;;;;9.18;2.60;;;;;;;;;;5034817;28;20022;-77
2023/05/25 11:36:43;;;;;;;2.92;2.22;;;;;;;;;;5037135;28;20604;-78
2023/05/25 11:39:09;;;;;;;4.47;2.50;;;;;;;;;;5043403;28;20025;-77
2023/05/25 11:41:36;;;;;;;8.82;2.72;;;;;;;;;;5050052;28;20124;-77
2023/05/25 11:44:06;;;;;;;3.78;2.55;;;;;;;;;;5040592;28;20550;-78
2023/05/25 11:46:33;;;;;;;7.30;2.67;;;;;;;;;;5039047;28;20397;-77
2023/05/25 11:49:00;;;;;;;5.60;2.58;;;;;;;;;;5054521;28;20075;-76
2023/05/25 11:51:27;;;;;;;5.03;2.63;;;;;;;;;;5054628;28;20083;-75
2023/05/25 11:53:54;;;;;;;4.25;2.10;;;;;;;;;;5054634;28;20025;-77
2023/05/25 11:56:23;;;;;;;10.15;2.70;;;;;;;;;;5053007;28;20550;-76
2023/05/25 11:58:50;;;;;;;6.45;2.85;;;;;;;;;;5051778;28;20025;-75
2023/05/25 12:01:17;;;;;;;6.03;2.47;;;;;;;;;;5051853;28;20106;-76
2023/05/25 12:03:44;;;;;;;6.93;2.83;;;;;;;;;;5053488;28;20108;-75
2023/05/25 12:06:23;;;;;;;4.82;2.42;;;;;;;;;;5054125;28;20025;-75
2023/05/25 12:08:49;;;;;;;7.50;2.40;;;;;;;;;;5054228;28;20494;-77
2023/05/25 12:11:15;;;;;;;3.53;2.33;;;;;;;;;;5054105;28;20538;-76
2023/05/25 12:13:41;;;;;;;3.80;2.25;;;;;;;;;;5051739;28;20033;-76
2023/05/25 12:16:07;;;;;;;5.20;2.78;;;;;;;;;;5050437;28;20499;-76
2023/05/25 12:18:34;;;;;;;4.80;2.40;;;;;;;;;;5051526;28;20039;-76
2023/05/25 12:21:00;;;;;;;5.55;2.25;;;;;;;;;;5053929;28;20057;-76
2023/05/25 12:23:26;;;;;;;5.65;2.20;;;;;;;;;;5053769;28;20037;-76
2023/05/25 12:26:25;;;;;;;5.10;2.67;;;;;;;;;;5052636;28;20071;-76
2023/05/25 12:29:09;;;;;;;3.65;2.40;;;;;;;;;;5020750;28;20079;-76
2023/05/25 12:31:37;;;;;;;3.70;2.50;;;;;;;;;;5054043;28;20024;-77
2023/05/25 12:34:07;;;;;;;6.82;2.70;;;;;;;;;;5053815;28;20025;-76
2023/05/25 12:36:41;;;;;;;8.43;3.35;;;;;;;;;;5053860;28;20526;-76
2023/05/25 12:39:08;;;;;;;5.97;2.58;;;;;;;;;;5053731;28;20067;-75
2023/05/25 12:41:51;;;;;;;5.32;2.33;;;;;;;;;;5053558;28;20040;-76
2023/05/25 12:44:17;;;;;;;3.50;2.40;;;;;;;;;;5053601;28;20034;-75
2023/05/25 12:46:43;;;;;;;4.35;2.13;;;;;;;;;;5053544;28;20045;-76
2023/05/25 12:49:25;;;;;;;5.47;2.25;;;;;;;;;;5053172;28;20025;-77
2023/05/25 12:51:51;;;;;;;;;;;;;;;;;;5054077;28;20083;-79
2023/05/25 12:54:32;;;;;;;11.48;2.40;;;;;;;;;;5053180;28;19904;-79
2023/05/25 12:56:58;;;;;;;4.80;2.40;;;;;;;;;;5052907;28;20036;-78
2023/05/25 12:59:24;;;;;;;6.45;3.13;;;;;;;;;;5053121;28;20385;-78
2023/05/25 13:01:50;;;;;;;3.33;2.40;;;;;;;;;;5053342;28;20043;-78
2023/05/25 13:04:16;;;;;;;4.22;2.70;;;;;;;;;;5053225;28;20028;-77
2023/05/25 13:06:42;;;;;;;4.43;2.00;;;;;;;;;;5035509;28;20473;-76
2023/05/25 13:09:08;;;;;;;3.88;2.33;;;;;;;;;;5053098;28;20024;-77
2023/05/25 13:11:35;;;;;;;3.53;2.25;;;;;;;;;;5052978;28;20040;-76
2023/05/25 13:14:01;;;;;;;3.88;1.95;;;;;;;;;;5053262;28;20405;-76
2023/05/25 13:16:28;;;;;;;3.92;2.53;;;;;;;;;;5053186;28;20108;-76
2023/05/25 13:18:54;;;;;;;5.60;2.83;;;;;;;;;;5053107;28;20013;-76
2023/05/25 13:21:20;;;;;;;6.25;2.33;;;;;;;;;;5052668;28;20043;-76
2023/05/25 13:23:46;;;;;;;3.40;2.35;;;;;;;;;;5052856;28;20079;-76
2023/05/25 13:26:13;;;;;;;7.10;2.60;;;;;;;;;;5053132;28;20407;-77
2023/05/25 13:28:39;;;;;;;4.78;2.33;;;;;;;;;;5052845;28;20103;-76
2023/05/25 13:31:05;;;;;;;3.65;2.40;;;;;;;;;;5052841;28;20033;-78
2023/05/25 13:33:31;;;;;;;5.25;2.40;;;;;;;;;;5052693;28;20108;-76
2023/05/25 13:35:57;;;;;;;5.25;2.35;;;;;;;;;;5052880;28;20029;-77
2023/05/25 13:38:24;;;;;;;6.03;3.00;;;;;;;;;;5052849;28;20053;-77
2023/05/25 13:40:50;;;;;;;4.63;2.10;;;;;;;;;;5052485;28;20025;-77
2023/05/25 13:43:16;;;;;;;3.92;2.30;;;;;;;;;;5052535;28;20485;-77
2023/05/25 13:45:42;;;;;;;4.43;2.33;;;;;;;;;;5052750;28;20053;-78
2023/05/25 13:48:08;;;;;;;2.75;2.15;;;;;;;;;;5052603;28;20032;-77
2023/05/25 13:50:34;;;;;;;4.53;2.20;;;;;;;;;;5052640;28;20582;-77
2023/05/25 13:53:00;;;;;;;6.07;2.40;;;;;;;;;;5052429;28;20017;-78
2023/05/25 13:55:27;;;;;;;6.30;2.05;;;;;;;;;;5052100;28;20482;-77
2023/05/25 13:57:53;;;;;;;5.78;2.42;;;;;;;;;;5052186;28;20021;-77
2023/05/25 14:00:19;;;;;;;4.93;2.22;;;;;;;;;;5051683;28;20559;-78
2023/05/25 14:02:45;;;;;;;4.03;2.00;;;;;;;;;;5051466;28;20036;-77
2023/05/25 14:05:11;;;;;;;5.50;2.10;;;;;;;;;;5052369;28;20025;-77
2023/05/25 14:07:40;;;;;;;3.42;1.92;;;;;;;;;;5052307;28;20507;-77
2023/05/25 14:10:06;;;;;;;6.22;2.38;;;;;;;;;;5052480;28;20089;-78
2023/05/25 14:12:32;;;;;;;4.13;2.20;;;;;;;;;;5034690;28;20443;-77
2023/05/25 14:14:59;;;;;;;3.50;2.28;;;;;;;;;;5034459;28;20469;-77
2023/05/25 14:17:25;;;;;;;3.83;2.00;;;;;;;;;;5052018;28;20025;-77
2023/05/25 14:19:51;;;;;;;3.78;2.45;;;;;;;;;;5052510;28;20469;-78
2023/05/25 14:22:17;;;;;;;4.57;2.35;;;;;;;;;;5051995;28;20087;-77
2023/05/25 14:24:43;;;;;;;4.45;2.67;;;;;;;;;;5052520;28;20025;-77
2023/05/25 14:27:09;;;;;;;3.75;2.10;;;;;;;;;;5051494;28;20029;-76
2023/05/25 14:29:36;;;;;;;4.38;2.30;;;;;;;;;;5052368;28;20087;-77
2023/05/25 14:32:02;;;;;;;5.35;2.30;;;;;;;;;;5052168;28;20540;-77
2023/05/25 14:34:28;;;;;;;5.90;2.30;;;;;;;;;;5051605;28;20033;-77
2023/05/25 14:36:54;;;;;;;5.35;2.03;;;;;;;;;;5052045;28;20500;-76
2023/05/25 14:39:20;;;;;;;5.38;2.03;;;;;;;;;;5053701;28;20028;-80
2023/05/25 14:41:46;;;;;;;11.82;2.22;;;;;;;;;;5055990;28;20378;-76
2023/05/25 14:44:12;;;;;;;5.25;2.30;;;;;;;;;;5056165;28;20029;-84